createdAt,value
2018-08-30T00:02:12.631Z,21.08
2018-08-30T00:04:54.957Z,21.00
2018-08-30T00:07:39.797Z,20.95
2018-08-30T00:10:18.559Z,20.97
2018-08-30T00:12:55.808Z,20.94
2018-08-30T00:15:36.873Z,20.88
2018-08-30T00:18:17.018Z,20.82
2018-08-30T00:20:56.179Z,20.84
2018-08-30T00:23:35.416Z,20.84
2018-08-30T00:26:13.684Z,20.73
2018-08-30T00:28:50.952Z,20.80
2018-08-30T00:34:26.227Z,20.68
2018-08-30T00:37:06.177Z,20.55
2018-08-30T00:42:34.423Z,20.69
2018-08-30T00:45:07.297Z,20.74
2018-08-30T00:47:52.983Z,20.55
2018-08-30T00:50:31.600Z,20.47
2018-08-30T00:53:09.034Z,20.46
2018-08-30T00:55:42.965Z,20.35
2018-08-30T00:58:18.076Z,20.23
2018-08-30T01:00:58.321Z,20.33
2018-08-30T01:03:37.998Z,20.32
2018-08-30T01:06:19.626Z,20.58
2018-08-30T01:08:57.140Z,20.39
2018-08-30T01:11:34.022Z,20.21
2018-08-30T01:14:11.496Z,20.12
2018-08-30T01:16:48.034Z,20.17
2018-08-30T01:19:28.329Z,20.14
2018-08-30T01:22:08.902Z,20.08
2018-08-30T01:24:47.549Z,19.94
2018-08-30T01:27:26.418Z,20.13
2018-08-30T01:30:01.909Z,20.23
2018-08-30T01:32:39.658Z,20.23
2018-08-30T01:37:55.307Z,20.28
2018-08-30T01:40:36.277Z,20.13
2018-08-30T01:45:53.833Z,20.12
2018-08-30T01:48:34.391Z,20.16
2018-08-30T01:51:07.607Z,20.12
2018-08-30T01:53:45.766Z,20.13
2018-08-30T01:56:21.274Z,19.97
2018-08-30T01:58:59.239Z,19.92
2018-08-30T02:01:35.083Z,20.12
2018-08-30T02:04:19.243Z,19.85
2018-08-30T02:06:52.033Z,20.07
2018-08-30T02:09:29.231Z,19.88
2018-08-30T02:12:05.654Z,19.71
2018-08-30T02:14:44.936Z,19.59
2018-08-30T02:17:19.674Z,19.62
2018-08-30T02:19:57.954Z,19.63
2018-08-30T02:22:38.677Z,19.66
2018-08-30T02:25:16.574Z,19.71
2018-08-30T02:27:55.940Z,19.57
2018-08-30T02:30:37.350Z,19.74
2018-08-30T02:33:13.671Z,20.19
2018-08-30T02:35:55.659Z,20.11
2018-08-30T02:43:58.221Z,19.87
2018-08-30T02:46:32.927Z,19.93
2018-08-30T02:49:13.214Z,19.82
2018-08-30T02:51:50.026Z,19.83
2018-08-30T02:54:29.623Z,19.77
2018-08-30T02:57:10.040Z,19.83
2018-08-30T03:02:33.025Z,19.92
2018-08-30T03:05:16.139Z,19.68
2018-08-30T03:07:58.487Z,19.76
2018-08-30T03:10:39.197Z,19.91
2018-08-30T03:13:18.439Z,19.78
2018-08-30T03:15:53.555Z,19.83
2018-08-30T03:18:32.876Z,19.99
2018-08-30T03:21:07.611Z,19.75
2018-08-30T03:23:36.807Z,19.74
2018-08-30T03:26:05.665Z,19.79
2018-08-30T03:28:34.645Z,19.73
2018-08-30T03:31:09.589Z,19.72
2018-08-30T03:33:38.644Z,19.83
2018-08-30T03:36:07.469Z,19.98
2018-08-30T03:38:36.438Z,19.80
2018-08-30T03:41:06.047Z,19.56
2018-08-30T03:43:35.904Z,19.59
2018-08-30T03:46:05.000Z,19.67
2018-08-30T03:48:34.226Z,19.75
2018-08-30T03:51:04.060Z,19.72
2018-08-30T03:53:33.783Z,19.57
2018-08-30T03:56:09.949Z,19.71
2018-08-30T03:58:38.776Z,19.59
2018-08-30T04:01:07.753Z,19.85
2018-08-30T04:03:36.604Z,19.82
2018-08-30T04:06:07.341Z,19.81
2018-08-30T04:08:36.719Z,19.64
2018-08-30T04:11:06.293Z,19.58
2018-08-30T04:13:35.165Z,19.42
2018-08-30T04:16:04.024Z,19.53
2018-08-30T04:18:33.008Z,19.61
2018-08-30T04:21:01.906Z,19.57
2018-08-30T04:23:31.701Z,19.69
2018-08-30T04:26:01.690Z,19.60
2018-08-30T04:28:31.691Z,19.79
2018-08-30T04:31:01.138Z,19.84
2018-08-30T04:33:30.049Z,19.90
2018-08-30T04:35:59.069Z,19.59
2018-08-30T04:38:28.221Z,19.72
2018-08-30T04:40:57.438Z,20.02
2018-08-30T04:43:26.963Z,20.05
2018-08-30T04:45:57.413Z,19.90
2018-08-30T04:48:26.310Z,19.96
2018-08-30T04:50:55.305Z,20.04
2018-08-30T04:53:24.186Z,20.06
2018-08-30T04:55:53.717Z,20.19
2018-08-30T04:58:24.091Z,20.09
2018-08-30T05:00:54.381Z,20.18
2018-08-30T05:03:23.299Z,20.25
2018-08-30T05:05:52.178Z,20.49
2018-08-30T05:08:22.914Z,20.46
2018-08-30T05:10:51.985Z,20.51
2018-08-30T05:13:22.134Z,20.73
2018-08-30T05:15:51.292Z,20.91
2018-08-30T05:18:20.646Z,21.00
2018-08-30T05:20:49.654Z,20.79
2018-08-30T05:23:20.150Z,20.91
2018-08-30T05:25:49.114Z,21.26
2018-08-30T05:28:18.019Z,21.53
2018-08-30T05:33:23.026Z,21.90
2018-08-30T05:35:51.922Z,22.01
2018-08-30T05:38:20.677Z,22.09
2018-08-30T05:43:24.601Z,22.49
2018-08-30T05:45:53.568Z,22.60
2018-08-30T05:48:22.448Z,22.75
2018-08-30T05:50:55.164Z,22.56
2018-08-30T05:53:24.021Z,22.77
2018-08-30T05:55:52.931Z,22.83
2018-08-30T05:58:22.440Z,22.62
2018-08-30T06:00:51.187Z,22.45
2018-08-30T06:03:20.070Z,22.80
2018-08-30T06:05:49.053Z,22.99
2018-08-30T06:08:18.114Z,22.80
2018-08-30T06:10:46.985Z,22.91
2018-08-30T06:13:15.943Z,23.01
2018-08-30T06:15:44.822Z,23.15
2018-08-30T06:18:13.900Z,23.61
2018-08-30T06:20:42.801Z,23.66
2018-08-30T06:23:11.818Z,23.55
2018-08-30T06:25:40.654Z,23.49
2018-08-30T06:28:09.691Z,23.78
2018-08-30T06:30:38.491Z,23.88
2018-08-30T06:33:07.408Z,23.63
2018-08-30T06:35:36.338Z,23.67
2018-08-30T06:38:05.913Z,23.95
2018-08-30T06:40:35.005Z,23.86
2018-08-30T06:43:03.920Z,23.87
2018-08-30T06:45:32.913Z,24.20
2018-08-30T06:48:01.739Z,24.32
2018-08-30T06:50:30.617Z,24.08
2018-08-30T06:52:59.427Z,24.21
2018-08-30T06:55:28.329Z,24.48
2018-08-30T06:57:57.234Z,24.65
2018-08-30T07:00:26.364Z,24.83
2018-08-30T07:02:55.284Z,24.76
2018-08-30T07:05:24.125Z,24.62
2018-08-30T07:07:53.348Z,25.17
2018-08-30T07:10:22.222Z,25.18
2018-08-30T07:12:51.163Z,25.43
2018-08-30T07:15:20.291Z,25.35
2018-08-30T07:17:49.498Z,25.43
2018-08-30T07:20:18.482Z,25.44
2018-08-30T07:22:47.315Z,25.89
2018-08-30T07:25:16.254Z,25.95
2018-08-30T07:27:45.287Z,26.24
2018-08-30T07:30:15.103Z,26.26
2018-08-30T07:32:44.475Z,26.24
2018-08-30T07:35:13.674Z,26.03
2018-08-30T07:37:42.542Z,26.00
2018-08-30T07:40:11.153Z,26.16
2018-08-30T07:42:40.186Z,26.38
2018-08-30T07:45:09.237Z,26.62
2018-08-30T07:47:38.151Z,26.90
2018-08-30T07:50:07.307Z,27.37
2018-08-30T07:52:37.304Z,27.29
2018-08-30T07:55:06.549Z,27.39
2018-08-30T07:57:35.613Z,27.58
2018-08-30T08:00:05.403Z,27.68
2018-08-30T08:02:34.600Z,27.51
2018-08-30T08:05:04.085Z,27.21
2018-08-30T08:07:33.829Z,27.27
2018-08-30T08:10:03.733Z,27.64
2018-08-30T08:12:33.781Z,27.62
2018-08-30T08:15:04.241Z,27.91
2018-08-30T08:17:33.785Z,27.82
2018-08-30T08:20:04.492Z,28.14
2018-08-30T08:22:33.911Z,27.91
2018-08-30T08:25:03.937Z,28.09
2018-08-30T08:27:34.348Z,28.43
2018-08-30T08:32:39.188Z,28.40
2018-08-30T08:35:08.199Z,28.59
2018-08-30T08:37:38.100Z,28.68
2018-08-30T08:40:07.098Z,28.78
2018-08-30T08:42:36.073Z,28.93
2018-08-30T08:45:05.079Z,28.96
2018-08-30T08:47:34.195Z,29.13
2018-08-30T08:50:04.325Z,29.16
2018-08-30T08:52:34.261Z,29.02
2018-08-30T08:55:04.249Z,29.35
2018-08-30T08:57:34.306Z,29.50
2018-08-30T09:00:04.109Z,29.53
2018-08-30T09:02:34.397Z,29.78
2018-08-30T09:05:04.209Z,29.81
2018-08-30T09:07:34.339Z,29.69
2018-08-30T09:10:04.388Z,29.61
2018-08-30T09:12:34.361Z,30.13
2018-08-30T09:15:04.386Z,30.20
2018-08-30T09:17:34.786Z,30.07
2018-08-30T09:20:04.636Z,30.36
2018-08-30T09:22:34.585Z,30.83
2018-08-30T09:25:04.279Z,30.79
2018-08-30T09:35:13.061Z,30.90
2018-08-30T09:37:41.921Z,31.01
2018-08-30T09:40:10.799Z,31.35
2018-08-30T09:42:39.825Z,31.72
2018-08-30T09:45:08.984Z,31.55
2018-08-30T09:47:37.983Z,31.77
2018-08-30T09:50:06.996Z,31.51
2018-08-30T09:52:36.767Z,31.41
2018-08-30T09:55:11.558Z,31.38
2018-08-30T09:57:40.394Z,31.65
2018-08-30T10:00:13.718Z,31.56
2018-08-30T10:02:47.957Z,31.39
2018-08-30T10:05:17.205Z,31.63
2018-08-30T10:07:46.236Z,31.54
2018-08-30T10:10:16.147Z,31.69
2018-08-30T10:12:45.057Z,30.94
2018-08-30T10:15:14.029Z,31.63
2018-08-30T10:17:42.987Z,32.15
2018-08-30T10:20:11.929Z,32.18
2018-08-30T10:22:40.808Z,32.10
2018-08-30T10:25:16.217Z,32.31
2018-08-30T10:27:45.247Z,31.46
2018-08-30T10:30:14.308Z,31.30
2018-08-30T10:32:43.786Z,30.84
2018-08-30T10:35:12.748Z,31.06
2018-08-30T10:37:43.188Z,31.86
2018-08-30T10:40:12.466Z,32.71
2018-08-30T10:42:41.302Z,32.58
2018-08-30T10:45:11.476Z,32.56
2018-08-30T10:47:40.334Z,32.02
2018-08-30T10:50:09.344Z,31.87
2018-08-30T10:52:38.267Z,31.86
2018-08-30T10:55:07.281Z,31.59
2018-08-30T10:57:36.316Z,31.46
2018-08-30T11:00:06.028Z,31.18
2018-08-30T11:02:35.750Z,31.30
2018-08-30T11:05:06.232Z,31.10
2018-08-30T11:07:35.814Z,31.15
2018-08-30T11:10:05.927Z,31.51
2018-08-30T11:12:35.755Z,31.65
2018-08-30T11:15:06.055Z,32.32
2018-08-30T11:17:36.085Z,32.10
2018-08-30T11:20:06.020Z,32.04
2018-08-30T11:22:35.756Z,32.24
2018-08-30T11:25:05.774Z,32.19
2018-08-30T11:27:35.836Z,31.25
2018-08-30T11:32:40.711Z,31.59
2018-08-30T11:35:09.653Z,32.02
2018-08-30T11:37:38.613Z,31.10
2018-08-30T11:40:07.476Z,31.48
2018-08-30T11:42:36.443Z,31.59
2018-08-30T11:45:06.676Z,31.88
2018-08-30T11:47:36.005Z,32.72
2018-08-30T11:50:05.901Z,33.20
2018-08-30T11:52:35.415Z,32.98
2018-08-30T11:55:04.296Z,33.48
2018-08-30T11:57:33.122Z,34.05
2018-08-30T12:00:12.521Z,33.96
2018-08-30T12:02:41.456Z,33.47
2018-08-30T12:05:10.481Z,34.12
2018-08-30T12:07:40.526Z,34.33
2018-08-30T12:10:09.513Z,33.99
2018-08-30T12:12:38.480Z,33.07
2018-08-30T12:17:41.463Z,32.13
2018-08-30T12:20:10.576Z,31.75
2018-08-30T12:22:39.536Z,31.19
2018-08-30T12:25:08.525Z,31.87
2018-08-30T12:27:37.501Z,32.13
2018-08-30T12:30:06.380Z,32.57
2018-08-30T12:32:36.868Z,33.04
2018-08-30T12:35:06.735Z,33.43
2018-08-30T12:37:36.446Z,33.30
2018-08-30T12:42:41.035Z,32.07
2018-08-30T12:45:09.997Z,31.59
2018-08-30T12:47:39.093Z,31.49
2018-08-30T12:50:08.102Z,31.56
2018-08-30T12:52:37.035Z,31.70
2018-08-30T12:55:07.682Z,31.67
2018-08-30T12:57:37.221Z,32.58
2018-08-30T13:00:07.370Z,32.26
2018-08-30T13:02:36.934Z,31.93
2018-08-30T13:05:06.806Z,31.47
2018-08-30T13:07:36.960Z,31.65
2018-08-30T13:10:06.924Z,31.55
2018-08-30T13:12:35.914Z,31.62
2018-08-30T13:15:05.432Z,31.90
2018-08-30T13:17:34.834Z,32.24
2018-08-30T13:20:03.665Z,33.03
2018-08-30T13:22:33.208Z,33.02
2018-08-30T13:25:02.273Z,32.54
2018-08-30T13:27:30.861Z,32.14
2018-08-30T13:29:59.924Z,31.85
2018-08-30T13:32:28.947Z,32.19
2018-08-30T13:34:58.338Z,32.58
2018-08-30T13:37:26.956Z,32.73
2018-08-30T13:39:55.935Z,32.62
2018-08-30T13:42:25.468Z,32.66
2018-08-30T13:44:54.359Z,32.94
2018-08-30T13:47:23.620Z,33.11
2018-08-30T13:49:52.167Z,32.91
2018-08-30T13:52:21.499Z,32.37
2018-08-30T13:54:50.336Z,32.23
2018-08-30T13:57:19.659Z,32.14
2018-08-30T13:59:48.676Z,31.95
2018-08-30T14:02:17.379Z,31.81
2018-08-30T14:04:46.107Z,31.54
2018-08-30T14:07:15.108Z,31.82
2018-08-30T14:09:44.051Z,31.78
2018-08-30T14:12:13.104Z,31.91
2018-08-30T14:14:42.412Z,31.98
2018-08-30T14:17:11.834Z,31.91
2018-08-30T14:19:41.652Z,31.65
2018-08-30T14:22:10.462Z,31.86
2018-08-30T14:24:39.605Z,32.10
2018-08-30T14:27:08.461Z,32.05
2018-08-30T14:29:37.357Z,32.17
2018-08-30T14:32:09.590Z,32.00
2018-08-30T14:34:38.462Z,32.38
2018-08-30T14:37:07.861Z,32.40
2018-08-30T14:39:37.239Z,32.51
2018-08-30T14:42:06.352Z,33.24
2018-08-30T14:44:35.289Z,33.38
2018-08-30T14:47:04.285Z,33.52
2018-08-30T14:49:33.323Z,33.78
2018-08-30T14:52:02.805Z,33.67
2018-08-30T14:54:32.825Z,33.22
2018-08-30T14:57:04.014Z,32.70
2018-08-30T14:59:34.816Z,33.10
2018-08-30T15:02:07.330Z,33.33
2018-08-30T15:04:39.247Z,32.91
2018-08-30T15:07:11.729Z,33.02
2018-08-30T15:09:42.854Z,32.72
2018-08-30T15:12:14.500Z,32.67
2018-08-30T15:14:44.041Z,32.80
2018-08-30T15:17:15.257Z,32.48
2018-08-30T15:19:47.710Z,32.35
2018-08-30T15:22:18.394Z,32.05
2018-08-30T15:24:49.282Z,31.97
2018-08-30T15:27:19.110Z,31.69
2018-08-30T15:32:25.713Z,30.51
2018-08-30T15:34:58.039Z,30.51
2018-08-30T15:37:31.785Z,30.40
2018-08-30T15:40:01.446Z,30.41
2018-08-30T15:42:32.092Z,29.60
2018-08-30T15:45:04.223Z,28.34
2018-08-30T15:47:37.028Z,28.19
2018-08-30T15:50:08.818Z,27.50
2018-08-30T15:52:49.616Z,27.38
2018-08-30T15:55:21.288Z,26.82
2018-08-30T15:57:51.990Z,26.82
2018-08-30T16:00:23.591Z,26.86
2018-08-30T16:02:54.751Z,27.06
2018-08-30T16:05:26.030Z,26.87
2018-08-30T16:07:59.270Z,26.60
2018-08-30T16:10:30.894Z,26.12
2018-08-30T16:13:02.566Z,25.85
2018-08-30T16:15:35.449Z,26.08
2018-08-30T16:18:07.966Z,26.28
2018-08-30T16:20:40.956Z,26.18
2018-08-30T16:23:25.874Z,26.29
2018-08-30T16:25:57.703Z,26.27
2018-08-30T16:28:31.674Z,26.15
2018-08-30T16:31:03.394Z,26.20
2018-08-30T16:33:34.303Z,26.25
2018-08-30T16:36:09.410Z,26.28
2018-08-30T16:38:40.559Z,26.12
2018-08-30T16:41:12.492Z,26.11
2018-08-30T16:43:44.246Z,26.15
2018-08-30T16:46:16.966Z,26.29
2018-08-30T16:48:47.515Z,25.79
2018-08-30T16:51:18.931Z,25.52
2018-08-30T16:53:48.504Z,25.30
2018-08-30T16:56:23.727Z,25.30
2018-08-30T16:58:53.654Z,25.35
2018-08-30T17:01:24.027Z,25.15
2018-08-30T17:03:55.045Z,24.55
2018-08-30T17:06:25.939Z,24.29
2018-08-30T17:08:56.228Z,23.60
2018-08-30T17:11:25.750Z,23.26
2018-08-30T17:13:57.412Z,23.44
2018-08-30T17:16:29.033Z,23.38
2018-08-30T17:19:06.667Z,22.98
2018-08-30T17:21:36.715Z,22.28
2018-08-30T17:24:09.244Z,22.45
2018-08-30T17:26:39.890Z,22.47
2018-08-30T17:29:11.240Z,22.58
2018-08-30T17:31:42.287Z,22.82
2018-08-30T17:34:13.233Z,22.74
2018-08-30T17:36:45.938Z,22.55
2018-08-30T17:39:17.576Z,22.44
2018-08-30T17:41:48.962Z,22.41
2018-08-30T17:44:20.731Z,22.31
2018-08-30T17:46:51.264Z,22.02
2018-08-30T17:49:23.315Z,21.89
2018-08-30T17:51:53.673Z,21.85
2018-08-30T17:54:24.473Z,21.96
2018-08-30T17:56:56.793Z,22.37
2018-08-30T17:59:27.596Z,22.46
2018-08-30T18:01:59.074Z,22.42
2018-08-30T18:04:31.222Z,22.25
2018-08-30T18:07:03.441Z,21.97
2018-08-30T18:09:33.465Z,22.02
2018-08-30T18:12:07.569Z,22.07
2018-08-30T18:14:38.472Z,21.83
2018-08-30T18:17:10.827Z,22.08
2018-08-30T18:19:43.533Z,21.96
2018-08-30T18:22:15.094Z,21.41
2018-08-30T18:24:48.736Z,21.46
2018-08-30T18:27:19.175Z,21.32
2018-08-30T18:29:50.309Z,21.58
2018-08-30T18:32:23.103Z,21.54
2018-08-30T18:34:57.057Z,21.69
2018-08-30T18:37:28.553Z,21.42
2018-08-30T18:40:01.660Z,21.71
2018-08-30T18:42:32.540Z,21.88
2018-08-30T18:47:39.237Z,21.27
2018-08-30T18:50:11.193Z,21.25
2018-08-30T18:55:18.120Z,21.46
2018-08-30T18:57:49.408Z,21.57
2018-08-30T19:00:20.433Z,21.76
2018-08-30T19:02:51.091Z,21.75
2018-08-30T19:05:21.248Z,21.80
2018-08-30T19:07:52.298Z,21.69
2018-08-30T19:10:22.367Z,21.51
2018-08-30T19:12:53.650Z,21.20
2018-08-30T19:15:28.489Z,21.22
2018-08-30T19:18:04.335Z,21.16
2018-08-30T19:20:35.965Z,21.27
2018-08-30T19:23:06.758Z,21.30
2018-08-30T19:25:36.805Z,21.50
2018-08-30T19:28:07.377Z,21.50
2018-08-30T19:30:37.772Z,21.64
2018-08-30T19:33:10.397Z,21.73
2018-08-30T19:35:47.877Z,21.80
2018-08-30T19:38:19.640Z,21.55
2018-08-30T19:40:55.307Z,21.15
2018-08-30T19:43:27.323Z,21.29
2018-08-30T19:45:58.667Z,21.39
2018-08-30T19:48:29.131Z,21.18
2018-08-30T19:51:05.030Z,21.46
2018-08-30T19:53:36.293Z,21.41
2018-08-30T19:56:07.539Z,21.75
2018-08-30T19:58:41.600Z,21.89
2018-08-30T20:01:14.531Z,21.76
2018-08-30T20:03:44.223Z,21.84
2018-08-30T20:06:16.002Z,21.75
2018-08-30T20:08:49.331Z,21.58
2018-08-30T20:11:22.539Z,21.41
2018-08-30T20:13:54.799Z,21.44
2018-08-30T20:16:26.991Z,21.13
2018-08-30T20:18:57.047Z,21.47
2018-08-30T20:21:31.529Z,21.43
2018-08-30T20:24:03.383Z,21.20
2018-08-30T20:26:35.138Z,21.19
2018-08-30T20:29:06.418Z,21.18
2018-08-30T20:31:39.067Z,21.32
2018-08-30T20:34:09.319Z,21.52
2018-08-30T20:36:40.947Z,21.58
2018-08-30T20:39:11.847Z,21.56
2018-08-30T20:41:43.724Z,21.46
2018-08-30T20:44:16.792Z,21.66
2018-08-30T20:46:46.932Z,21.81
2018-08-30T20:49:17.698Z,21.79
2018-08-30T20:59:38.516Z,21.57
2018-08-30T21:02:10.414Z,21.59
2018-08-30T21:04:41.871Z,21.47
2018-08-30T21:07:14.059Z,21.45
2018-08-30T21:09:46.951Z,21.65
2018-08-30T21:12:18.296Z,21.60
2018-08-30T21:14:51.197Z,21.47
2018-08-30T21:17:23.781Z,21.64
2018-08-30T21:19:55.916Z,21.57
2018-08-30T21:22:27.438Z,21.79
2018-08-30T21:24:58.276Z,21.46
2018-08-30T21:27:30.072Z,21.51
2018-08-30T21:35:14.720Z,21.43
2018-08-30T21:37:45.849Z,21.44
2018-08-30T21:40:15.815Z,21.66
2018-08-30T21:42:47.570Z,21.69
2018-08-30T21:45:18.335Z,21.68
2018-08-30T21:47:49.363Z,21.54
2018-08-30T21:52:58.675Z,21.46
2018-08-30T21:55:30.440Z,21.16
2018-08-30T21:58:02.118Z,21.50
2018-08-30T22:00:30.961Z,21.61
2018-08-30T22:03:03.640Z,21.50
2018-08-30T22:05:34.803Z,21.72
2018-08-30T22:08:04.914Z,21.44
2018-08-30T22:10:35.036Z,21.64
2018-08-30T22:13:04.733Z,21.24
2018-08-30T22:15:35.374Z,21.61
2018-08-30T22:18:07.595Z,21.64
2018-08-30T22:20:37.502Z,21.73
2018-08-30T22:23:09.591Z,21.71
2018-08-30T22:25:40.315Z,21.89
2018-08-30T22:28:12.490Z,21.97
2018-08-30T22:30:42.906Z,22.08
2018-08-30T22:33:13.687Z,22.00
2018-08-30T22:35:44.866Z,22.03
2018-08-30T22:38:15.053Z,21.99
2018-08-30T22:40:46.222Z,22.07
2018-08-30T22:43:17.409Z,21.82
2018-08-30T22:45:47.045Z,21.93
2018-08-30T22:48:17.477Z,21.88
2018-08-30T22:50:49.674Z,21.90
2018-08-30T22:53:19.814Z,21.73
2018-08-30T22:55:51.431Z,21.88
2018-08-30T22:58:22.008Z,21.40
2018-08-30T23:00:53.539Z,21.64
2018-08-30T23:03:23.901Z,21.77
2018-08-30T23:05:57.143Z,21.64
2018-08-30T23:08:28.428Z,21.65
2018-08-30T23:13:36.891Z,21.85
2018-08-30T23:16:08.010Z,21.87
2018-08-30T23:18:38.331Z,21.87
2018-08-30T23:21:09.455Z,21.49
2018-08-30T23:26:14.119Z,21.30
2018-08-30T23:28:44.911Z,21.47
2018-08-30T23:31:15.847Z,21.37
2018-08-30T23:33:46.713Z,21.57
2018-08-30T23:36:18.891Z,21.47
2018-08-30T23:38:49.401Z,21.60
2018-08-30T23:41:20.512Z,21.52
2018-08-30T23:43:51.826Z,21.71
2018-08-30T23:46:22.310Z,21.76
2018-08-30T23:48:53.801Z,21.79
2018-08-30T23:51:24.897Z,21.62
2018-08-30T23:53:56.408Z,21.49
2018-08-30T23:56:28.357Z,21.60
2018-08-30T23:59:09.555Z,21.48
